Time;durP1;ratioP1;P1;durP2;ratioP2;P2;SDS_P1;SDS_P2;PMS_P1;PMS_P2;Temp;Humidity;BMP_temperature;BMP_pressure;BME280_temperature;BME280_humidity;BME280_pressure;Samples;Min_cycle;Max_cycle;Signal;HPM_P1;HPM_P2
2021/01/28 00:01:05;;;;;;;8.68;3.90;;;4.30;99.90;;;;;;5094727;28;20289;-73
2021/01/28 00:03:31;;;;;;;5.07;3.97;;;4.30;99.90;;;;;;5094536;28;20225;-72
2021/01/28 00:05:58;;;;;;;4.80;3.13;;;4.40;99.90;;;;;;5094198;28;20684;-71
2021/01/28 00:08:24;;;;;;;4.30;3.10;;;4.60;99.90;;;;;;5094564;28;20208;-72
2021/01/28 00:10:52;;;;;;;3.90;2.90;;;4.60;99.90;;;;;;5094641;28;20221;-72
2021/01/28 00:13:18;;;;;;;3.20;2.50;;;4.70;99.90;;;;;;5094026;28;20225;-73
2021/01/28 00:15:44;;;;;;;3.97;2.35;;;4.80;99.90;;;;;;5094091;28;20236;-73
2021/01/28 00:18:14;;;;;;;4.78;3.00;;;4.80;99.90;;;;;;5094552;28;20325;-72
2021/01/28 00:20:42;;;;;;;4.47;3.00;;;4.90;99.90;;;;;;5094576;28;20209;-73
2021/01/28 00:23:09;;;;;;;3.05;2.63;;;4.90;99.90;;;;;;5094469;28;20309;-72
2021/01/28 00:25:36;;;;;;;5.30;2.85;;;4.90;99.90;;;;;;5093937;28;20204;-73
2021/01/28 00:28:04;;;;;;;5.32;2.63;;;4.90;99.90;;;;;;5094329;28;20297;-71
2021/01/28 00:30:33;;;;;;;3.28;2.40;;;5.00;99.90;;;;;;5094141;28;20284;-72
2021/01/28 00:33:00;;;;;;;6.13;2.78;;;5.00;99.90;;;;;;5094141;28;20226;-72
2021/01/28 00:35:32;;;;;;;6.38;2.33;;;5.00;99.90;;;;;;5094320;28;20202;-72
2021/01/28 00:37:59;;;;;;;3.47;2.00;;;4.90;99.90;;;;;;5094034;28;20197;-72
2021/01/28 00:40:31;;;;;;;2.75;2.03;;;4.80;99.90;;;;;;5094064;28;20202;-72
2021/01/28 00:42:58;;;;;;;3.35;2.17;;;4.80;99.90;;;;;;5093786;28;20225;-72
2021/01/28 00:45:29;;;;;;;3.92;2.03;;;4.80;99.90;;;;;;5094053;28;20251;-72
2021/01/28 00:47:56;;;;;;;3.33;2.67;;;4.90;99.90;;;;;;5093995;28;20591;-72
2021/01/28 00:50:25;;;;;;;3.60;2.70;;;4.90;99.90;;;;;;5094185;28;20351;-73
2021/01/28 00:52:52;;;;;;;3.45;2.80;;;4.90;99.90;;;;;;5093589;28;20665;-71
2021/01/28 00:55:20;;;;;;;3.38;2.47;;;5.00;99.90;;;;;;5093526;28;20202;-72
2021/01/28 00:57:47;;;;;;;4.13;2.42;;;4.90;99.90;;;;;;5093195;28;20294;-75
2021/01/28 01:00:16;;;;;;;4.70;2.80;;;4.90;99.90;;;;;;5093774;28;20209;-76
2021/01/28 01:02:43;;;;;;;2.67;2.00;;;4.90;99.90;;;;;;5093526;28;20228;-75
2021/01/28 01:05:12;;;;;;;4.53;2.40;;;5.00;99.90;;;;;;5093595;28;20212;-76
2021/01/28 01:07:38;;;;;;;3.90;2.30;;;5.00;99.90;;;;;;5093128;28;20206;-75
2021/01/28 01:10:08;;;;;;;3.85;2.30;;;5.00;99.90;;;;;;5093435;28;20209;-75
2021/01/28 01:12:35;;;;;;;4.15;2.10;;;5.00;99.90;;;;;;5093378;28;20653;-78
2021/01/28 01:15:01;;;;;;;3.70;2.15;;;5.10;99.90;;;;;;5093807;28;20235;-78
2021/01/28 01:17:27;;;;;;;3.22;1.90;;;5.10;99.90;;;;;;5094050;28;20198;-78
2021/01/28 01:19:54;;;;;;;2.88;2.60;;;5.10;99.90;;;;;;5095736;28;20206;-78
2021/01/28 01:22:20;;;;;;;4.70;2.33;;;5.10;99.90;;;;;;5093935;28;20237;-77
2021/01/28 01:24:46;;;;;;;5.03;2.42;;;5.20;99.90;;;;;;5092898;28;20255;-77
2021/01/28 01:27:13;;;;;;;3.15;1.55;;;5.20;99.90;;;;;;5093712;28;20206;-78
2021/01/28 01:29:40;;;;;;;2.10;1.38;;;5.20;99.90;;;;;;5093744;28;20210;-77
2021/01/28 01:32:07;;;;;;;4.60;2.80;;;5.20;99.90;;;;;;5093331;28;20237;-77
2021/01/28 01:34:33;;;;;;;3.40;1.83;;;5.30;99.90;;;;;;5093025;28;20216;-77
2021/01/28 01:36:59;;;;;;;2.65;1.60;;;5.30;99.90;;;;;;5092813;28;20294;-73
2021/01/28 01:39:26;;;;;;;3.63;1.50;;;5.30;99.90;;;;;;5093910;28;20208;-75
2021/01/28 01:41:52;;;;;;;1.88;1.55;;;5.30;99.90;;;;;;5094172;28;20335;-75
2021/01/28 01:44:19;;;;;;;3.80;1.67;;;5.20;99.90;;;;;;5094472;28;20224;-76
2021/01/28 01:46:51;;;;;;;3.85;2.60;;;5.20;99.90;;;;;;5093492;28;20255;-76
2021/01/28 01:49:22;;;;;;;1.88;1.70;;;5.20;99.90;;;;;;5094486;28;20226;-75
2021/01/28 01:51:49;;;;;;;2.60;1.30;;;5.30;99.90;;;;;;5094405;28;20597;-72
2021/01/28 01:54:23;;;;;;;2.33;1.30;;;5.30;99.90;;;;;;5094092;28;20208;-72
2021/01/28 01:56:54;;;;;;;3.28;1.77;;;5.40;99.90;;;;;;5093933;28;20250;-72
2021/01/28 01:59:24;;;;;;;1.30;1.00;;;5.40;99.90;;;;;;5094163;28;20637;-71
2021/01/28 02:01:59;;;;;;;2.33;1.65;;;5.40;99.90;;;;;;5093811;28;20616;-72
2021/01/28 02:04:25;;;;;;;4.35;2.00;;;5.40;99.90;;;;;;5093671;28;20297;-71
2021/01/28 02:06:55;;;;;;;2.20;1.13;;;5.40;99.90;;;;;;5093673;28;20204;-71
2021/01/28 02:09:21;;;;;;;1.30;1.20;;;5.40;99.90;;;;;;5094087;28;20205;-71
2021/01/28 02:11:49;;;;;;;1.30;1.00;;;5.40;99.90;;;;;;5093849;28;20236;-71
2021/01/28 02:14:17;;;;;;;1.55;1.23;;;5.50;99.90;;;;;;5094490;28;20206;-71
2021/01/28 02:16:50;;;;;;;1.60;1.30;;;5.50;99.90;;;;;;5093380;28;20300;-71
2021/01/28 02:19:29;;;;;;;2.83;1.50;;;5.50;99.90;;;;;;5093857;28;20293;-71
2021/01/28 02:21:58;;;;;;;1.80;1.30;;;5.60;99.90;;;;;;5093647;28;20304;-71
2021/01/28 02:24:34;;;;;;;1.95;1.38;;;5.60;99.90;;;;;;5094288;28;20204;-71
2021/01/28 02:27:03;;;;;;;2.05;1.40;;;5.60;99.90;;;;;;5093449;28;20198;-71
2021/01/28 02:29:30;;;;;;;1.48;0.85;;;5.60;99.90;;;;;;5093678;28;20202;-71
2021/01/28 02:31:56;;;;;;;2.38;1.15;;;5.60;99.90;;;;;;5093444;28;20226;-71
2021/01/28 02:34:24;;;;;;;1.95;1.13;;;5.60;99.90;;;;;;5094024;28;20205;-71
2021/01/28 02:36:52;;;;;;;1.33;1.15;;;5.60;99.90;;;;;;5095202;28;20202;-71
2021/01/28 02:39:22;;;;;;;2.88;1.30;;;5.70;99.90;;;;;;5097805;28;20204;-71
2021/01/28 02:41:56;;;;;;;2.38;1.38;;;5.60;99.90;;;;;;5097967;28;20222;-71
2021/01/28 02:44:24;;;;;;;1.98;1.27;;;5.60;99.90;;;;;;5097915;28;20293;-71
2021/01/28 02:46:50;;;;;;;1.70;1.20;;;5.70;99.90;;;;;;5097115;28;20210;-71
2021/01/28 02:49:18;;;;;;;3.50;1.42;;;5.70;99.90;;;;;;5097553;28;20293;-72
2021/01/28 02:51:45;;;;;;;2.20;1.40;;;5.70;99.90;;;;;;5097014;28;20718;-71
2021/01/28 02:54:11;;;;;;;1.90;1.52;;;5.70;99.90;;;;;;5097266;28;20202;-71
2021/01/28 02:56:38;;;;;;;1.70;1.23;;;5.80;99.90;;;;;;5097272;28;20206;-71
2021/01/28 02:59:06;;;;;;;1.70;1.60;;;5.80;99.90;;;;;;5098035;28;20594;-71
2021/01/28 03:01:34;;;;;;;1.67;1.05;;;5.80;99.90;;;;;;5097246;28;20221;-71
2021/01/28 03:04:01;;;;;;;1.50;0.90;;;5.80;99.90;;;;;;5097129;28;20202;-71
2021/01/28 03:06:27;;;;;;;5.65;1.40;;;5.80;99.90;;;;;;5096953;28;20202;-72
2021/01/28 03:08:53;;;;;;;1.45;1.20;;;5.80;99.90;;;;;;5097104;28;20716;-71
2021/01/28 03:11:20;;;;;;;0.95;0.85;;;5.80;99.90;;;;;;5096842;28;20351;-71
2021/01/28 03:13:47;;;;;;;1.63;1.40;;;5.80;99.90;;;;;;5096614;28;20210;-71
2021/01/28 03:16:13;;;;;;;2.15;1.10;;;5.80;99.90;;;;;;5096691;28;20293;-72
2021/01/28 03:18:40;;;;;;;1.25;1.00;;;5.90;99.90;;;;;;5097266;28;20202;-71
2021/01/28 03:21:07;;;;;;;1.60;1.10;;;5.90;99.90;;;;;;5097142;28;20201;-71
2021/01/28 03:23:33;;;;;;;1.40;0.90;;;5.90;99.90;;;;;;5096484;28;20312;-71
2021/01/28 03:25:59;;;;;;;1.92;1.10;;;5.90;99.90;;;;;;5096548;28;20720;-71
2021/01/28 03:28:26;;;;;;;1.55;0.70;;;5.90;99.90;;;;;;5096740;28;20293;-71
2021/01/28 03:30:52;;;;;;;1.10;1.00;;;5.90;99.90;;;;;;5096640;28;20297;-71
2021/01/28 03:33:21;;;;;;;2.78;1.10;;;5.90;99.90;;;;;;5096444;28;20232;-71
2021/01/28 03:35:49;;;;;;;0.85;0.85;;;6.00;99.90;;;;;;5096743;28;20212;-71
2021/01/28 03:38:16;;;;;;;1.80;0.93;;;6.00;99.90;;;;;;5096955;28;20343;-71
2021/01/28 03:40:43;;;;;;;1.20;1.10;;;6.00;99.90;;;;;;5096610;28;20284;-71
2021/01/28 03:43:09;;;;;;;1.75;1.30;;;6.00;99.90;;;;;;5096315;28;20214;-71
2021/01/28 03:45:36;;;;;;;1.08;0.75;;;5.90;99.90;;;;;;5096073;28;20685;-71
2021/01/28 03:48:03;;;;;;;3.83;1.30;;;5.90;99.90;;;;;;5095669;28;20572;-71
2021/01/28 03:50:33;;;;;;;1.55;1.10;;;5.90;99.90;;;;;;5096313;28;20201;-71
2021/01/28 03:53:01;;;;;;;1.55;1.30;;;5.90;99.90;;;;;;5096478;28;20225;-71
2021/01/28 03:55:27;;;;;;;2.05;1.15;;;5.90;99.90;;;;;;5096164;28;20258;-72
2021/01/28 03:57:54;;;;;;;1.10;1.00;;;5.90;99.90;;;;;;5096825;28;20206;-71
2021/01/28 04:00:23;;;;;;;1.25;1.15;;;5.80;99.90;;;;;;5096450;28;20309;-71
2021/01/28 04:02:50;;;;;;;2.25;0.82;;;5.80;99.90;;;;;;5096296;28;20226;-71
2021/01/28 04:05:17;;;;;;;1.95;0.90;;;5.80;99.90;;;;;;5096093;28;20589;-71
2021/01/28 04:07:44;;;;;;;1.55;0.90;;;5.90;99.90;;;;;;5095400;28;20731;-72
2021/01/28 04:10:14;;;;;;;0.60;0.60;;;6.00;99.90;;;;;;5095941;28;20652;-71
2021/01/28 04:12:41;;;;;;;1.73;0.90;;;6.00;99.90;;;;;;5095410;28;20314;-72
2021/01/28 04:15:09;;;;;;;4.75;0.93;;;6.00;99.90;;;;;;5096439;28;20202;-72
2021/01/28 04:17:35;;;;;;;1.30;1.20;;;6.00;99.90;;;;;;5095343;28;20216;-72
2021/01/28 04:20:02;;;;;;;4.90;2.50;;;6.00;99.90;;;;;;5095735;28;20580;-72
2021/01/28 04:22:28;;;;;;;1.25;1.10;;;6.10;99.90;;;;;;5095564;28;20214;-72
2021/01/28 04:24:54;;;;;;;2.50;1.60;;;6.10;99.90;;;;;;5095571;28;20212;-72
2021/01/28 04:27:21;;;;;;;2.35;1.23;;;6.10;99.90;;;;;;5096138;28;20298;-72
2021/01/28 04:29:48;;;;;;;2.28;1.35;;;6.10;99.90;;;;;;5095959;28;20204;-72
2021/01/28 04:32:14;;;;;;;2.33;1.25;;;6.10;99.90;;;;;;5095519;28;20316;-72
2021/01/28 04:34:40;;;;;;;2.50;1.10;;;6.10;99.90;;;;;;5095574;28;20208;-72
2021/01/28 04:37:07;;;;;;;1.70;1.60;;;6.10;99.90;;;;;;5095278;28;20705;-72
2021/01/28 04:39:33;;;;;;;1.67;1.20;;;6.10;99.90;;;;;;5095578;28;20250;-72
2021/01/28 04:41:59;;;;;;;2.47;1.30;;;6.20;99.90;;;;;;5095247;28;20231;-72
2021/01/28 04:44:27;;;;;;;3.13;1.60;;;6.10;99.90;;;;;;5094915;28;20198;-72
2021/01/28 04:46:56;;;;;;;3.50;1.80;;;6.10;99.90;;;;;;5094794;28;20301;-71
2021/01/28 04:49:25;;;;;;;1.67;0.90;;;6.10;99.90;;;;;;5095148;28;20399;-72
2021/01/28 04:52:00;;;;;;;1.73;0.93;;;6.10;99.90;;;;;;5095163;28;20312;-71
2021/01/28 04:54:31;;;;;;;1.85;1.50;;;6.10;99.90;;;;;;5095236;28;20272;-72
2021/01/28 04:56:58;;;;;;;1.45;1.00;;;6.10;99.90;;;;;;5094784;28;20205;-72
2021/01/28 04:59:29;;;;;;;2.20;1.30;;;6.00;99.90;;;;;;5094495;28;20202;-72
2021/01/28 05:01:56;;;;;;;2.50;1.40;;;6.00;99.90;;;;;;5094854;28;20226;-72
2021/01/28 05:04:27;;;;;;;3.17;1.92;;;6.00;99.90;;;;;;5095453;28;20288;-72
2021/01/28 05:06:54;;;;;;;2.17;1.33;;;5.90;99.90;;;;;;5094659;28;20190;-71
2021/01/28 05:09:20;;;;;;;2.00;1.80;;;5.90;99.90;;;;;;5095117;28;20257;-72
2021/01/28 05:11:53;;;;;;;3.35;1.90;;;6.00;99.90;;;;;;5094430;28;20236;-72
2021/01/28 05:14:21;;;;;;;2.90;1.90;;;6.00;99.90;;;;;;5094718;28;20281;-72
2021/01/28 05:16:51;;;;;;;3.38;1.50;;;5.90;99.90;;;;;;5094153;28;20198;-72
2021/01/28 05:19:40;;;;;;;2.63;2.05;;;6.00;99.90;;;;;;5094373;28;20233;-72
2021/01/28 05:22:25;;;;;;;6.63;1.80;;;5.90;99.90;;;;;;5094529;28;20218;-72
2021/01/28 05:24:53;;;;;;;4.03;1.73;;;5.90;99.90;;;;;;5094481;28;20664;-72
2021/01/28 05:27:37;;;;;;;4.78;2.00;;;5.80;99.90;;;;;;5094489;28;20208;-72
2021/01/28 05:30:06;;;;;;;1.60;1.50;;;5.80;99.90;;;;;;5094404;28;20190;-71
2021/01/28 05:32:40;;;;;;;2.20;1.40;;;5.70;99.90;;;;;;5094156;28;20226;-72
2021/01/28 05:35:25;;;;;;;2.20;2.00;;;5.80;99.90;;;;;;5094225;28;20563;-72
2021/01/28 05:38:05;;;;;;;2.53;1.73;;;5.80;99.90;;;;;;5094176;28;20208;-72
2021/01/28 05:40:32;;;;;;;2.38;1.50;;;5.80;99.90;;;;;;5094577;28;20209;-71
2021/01/28 05:42:59;;;;;;;4.65;2.20;;;5.80;99.90;;;;;;5093869;28;20600;-71
2021/01/28 05:45:35;;;;;;;3.03;2.00;;;5.70;99.90;;;;;;5094116;28;20266;-72
2021/01/28 05:48:23;;;;;;;3.40;1.85;;;5.80;99.90;;;;;;5094381;28;20304;-72
2021/01/28 05:51:04;;;;;;;4.97;3.00;;;5.70;99.90;;;;;;5094377;28;20202;-72
2021/01/28 05:53:31;;;;;;;3.67;1.75;;;5.80;99.90;;;;;;5093980;28;20253;-72
2021/01/28 05:55:57;;;;;;;4.65;1.92;;;5.70;99.90;;;;;;5093559;28;20667;-71
2021/01/28 05:58:31;;;;;;;2.25;2.00;;;5.70;99.90;;;;;;5094151;28;20202;-71
2021/01/28 06:01:04;;;;;;;3.33;2.13;;;5.70;99.90;;;;;;5094254;28;20207;-72
2021/01/28 06:03:52;;;;;;;4.15;1.85;;;5.60;99.90;;;;;;5094855;28;20218;-72
2021/01/28 06:06:59;;;;;;;4.35;2.03;;;5.70;99.90;;;;;;5093744;28;20328;-71
2021/01/28 06:09:41;;;;;;;5.10;2.45;;;5.70;99.90;;;;;;5094232;28;20212;-71
2021/01/28 06:12:39;;;;;;;6.68;3.13;;;5.50;99.90;;;;;;5093181;28;20222;-71
2021/01/28 06:15:29;;;;;;;4.97;2.85;;;5.40;99.90;;;;;;5093807;28;20193;-71
2021/01/28 06:18:27;;;;;;;5.18;2.35;;;5.40;99.90;;;;;;5094015;28;20708;-72
2021/01/28 06:21:30;;;;;;;5.90;2.55;;;5.40;99.90;;;;;;5093823;28;20302;-72
2021/01/28 06:24:23;;;;;;;4.50;2.92;;;5.40;99.90;;;;;;5094290;28;20238;-72
2021/01/28 06:27:05;;;;;;;6.60;3.85;;;5.20;99.90;;;;;;5093481;28;20210;-72
2021/01/28 06:29:50;;;;;;;5.88;3.20;;;5.20;99.90;;;;;;5093583;28;20206;-72
2021/01/28 06:32:39;;;;;;;5.00;3.58;;;5.20;99.90;;;;;;5093458;28;20297;-72
2021/01/28 06:35:18;;;;;;;5.55;3.63;;;5.30;99.90;;;;;;5093630;28;20190;-72
2021/01/28 06:37:59;;;;;;;6.88;3.92;;;5.40;99.90;;;;;;5093603;28;20293;-71
2021/01/28 06:40:30;;;;;;;10.40;4.05;;;5.40;99.90;;;;;;5093559;28;20186;-71
2021/01/28 06:43:02;;;;;;;7.97;4.00;;;5.30;99.90;;;;;;5093441;28;20222;-72
2021/01/28 06:45:32;;;;;;;5.15;3.53;;;5.20;99.90;;;;;;5093237;28;20562;-73
2021/01/28 06:48:03;;;;;;;4.70;3.20;;;5.20;99.90;;;;;;5093524;28;20269;-72
2021/01/28 06:50:38;;;;;;;5.55;3.83;;;5.20;99.90;;;;;;5093643;28;20202;-72
2021/01/28 06:53:11;;;;;;;5.85;3.55;;;5.30;99.90;;;;;;5093848;28;20226;-72
2021/01/28 06:55:45;;;;;;;9.52;4.05;;;5.30;99.90;;;;;;5093666;28;20202;-72
2021/01/28 06:58:35;;;;;;;4.25;2.72;;;5.30;99.90;;;;;;5093442;28;20293;-72
2021/01/28 07:01:08;;;;;;;4.13;2.65;;;5.30;99.90;;;;;;5093063;28;20186;-72
2021/01/28 07:03:42;;;;;;;3.70;2.80;;;5.30;99.90;;;;;;5093879;28;20255;-72
2021/01/28 07:06:15;;;;;;;4.95;2.50;;;5.40;99.90;;;;;;5093385;28;20657;-72
2021/01/28 07:08:58;;;;;;;2.70;2.38;;;5.40;99.90;;;;;;5093442;28;20294;-72
2021/01/28 07:11:33;;;;;;;3.00;2.00;;;5.20;99.90;;;;;;5093163;28;20208;-72
2021/01/28 07:14:00;;;;;;;5.88;2.90;;;5.30;99.90;;;;;;5093984;28;20190;-72
2021/01/28 07:16:38;;;;;;;5.55;3.40;;;5.20;99.90;;;;;;5093058;28;20264;-72
2021/01/28 07:19:13;;;;;;;5.88;3.25;;;5.30;99.90;;;;;;5093277;28;20202;-72
2021/01/28 07:21:43;;;;;;;5.00;3.05;;;5.30;99.90;;;;;;5093277;28;20226;-72
2021/01/28 07:24:24;;;;;;;4.90;3.00;;;5.20;99.90;;;;;;5096153;28;20206;-72
2021/01/28 07:26:53;;;;;;;3.72;2.65;;;5.30;99.90;;;;;;5096494;28;20640;-72
2021/01/28 07:29:50;;;;;;;6.13;2.92;;;5.10;99.90;;;;;;5096755;28;20218;-72
2021/01/28 07:32:48;;;;;;;6.38;3.63;;;5.00;99.90;;;;;;5096176;28;20233;-72
2021/01/28 07:35:44;;;;;;;7.00;3.30;;;5.20;99.90;;;;;;5097214;28;20634;-72
2021/01/28 07:38:39;;;;;;;5.47;3.30;;;5.30;99.90;;;;;;5061221;28;20220;-72
2021/01/28 07:41:33;;;;;;;5.50;3.38;;;5.20;99.90;;;;;;5096837;28;20249;-72
2021/01/28 07:44:44;;;;;;;9.70;4.85;;;5.40;99.90;;;;;;5093755;28;20206;-72
2021/01/28 07:47:30;;;;;;;6.15;3.67;;;5.30;99.90;;;;;;5095887;28;20214;-72
2021/01/28 07:50:29;;;;;;;8.68;4.70;;;5.40;99.90;;;;;;5095818;28;20293;-72
2021/01/28 07:52:55;;;;;;;8.63;3.75;;;5.60;99.90;;;;;;5096496;28;20229;-72
2021/01/28 07:55:43;;;;;;;8.20;4.10;;;5.60;99.90;;;;;;5096638;28;20208;-72
2021/01/28 07:58:26;;;;;;;8.00;4.18;;;5.60;99.90;;;;;;5096776;28;20241;-72
2021/01/28 08:00:53;;;;;;;8.18;4.10;;;5.50;99.90;;;;;;5095909;28;20209;-72
2021/01/28 08:03:33;;;;;;;7.05;3.78;;;5.50;99.90;;;;;;5096082;28;20222;-72
2021/01/28 08:06:05;;;;;;;9.55;4.00;;;5.60;99.90;;;;;;5096441;28;20201;-72
2021/01/28 08:08:32;;;;;;;11.07;4.10;;;5.60;99.90;;;;;;5097386;28;20639;-72
2021/01/28 08:11:13;;;;;;;7.68;4.15;;;5.70;99.90;;;;;;5096646;28;20198;-72
2021/01/28 08:13:41;;;;;;;7.82;4.10;;;5.60;99.90;;;;;;5096683;28;20212;-73
2021/01/28 08:16:14;;;;;;;8.45;4.38;;;5.60;99.90;;;;;;5095980;28;20202;-72
2021/01/28 08:18:42;;;;;;;7.88;4.10;;;5.60;99.90;;;;;;5096265;28;20209;-72
2021/01/28 08:21:12;;;;;;;6.18;3.97;;;5.60;99.90;;;;;;5096116;28;20296;-72
2021/01/28 08:23:39;;;;;;;7.70;4.57;;;5.50;99.90;;;;;;5095475;28;20686;-72
2021/01/28 08:26:08;;;;;;;6.78;3.67;;;5.50;99.90;;;;;;5095396;28;20350;-72
2021/01/28 08:28:36;;;;;;;6.13;3.65;;;5.50;99.90;;;;;;5095783;28;20202;-72
2021/01/28 08:31:13;;;;;;;6.68;4.22;;;5.50;99.90;;;;;;5095387;28;20206;-72
2021/01/28 08:33:43;;;;;;;5.93;4.05;;;5.50;99.90;;;;;;5095341;28;20255;-72
2021/01/28 08:36:21;;;;;;;5.57;3.20;;;5.50;99.90;;;;;;5095319;28;20202;-72
2021/01/28 08:38:49;;;;;;;4.93;3.00;;;5.60;99.90;;;;;;5095529;28;20227;-72
2021/01/28 08:41:19;;;;;;;11.30;3.13;;;5.70;99.90;;;;;;5095001;28;20209;-72
2021/01/28 08:43:46;;;;;;;6.18;3.80;;;5.70;99.90;;;;;;5095927;28;20533;-72
2021/01/28 08:46:19;;;;;;;1.50;1.40;;;5.80;99.90;;;;;;5095117;28;20222;-72
2021/01/28 08:48:46;;;;;;;2.97;1.85;;;5.90;99.90;;;;;;5095069;28;20202;-72
2021/01/28 08:51:19;;;;;;;2.25;1.65;;;6.00;99.90;;;;;;5095183;28;20210;-72
2021/01/28 08:53:48;;;;;;;2.28;1.70;;;6.10;99.90;;;;;;5095150;28;20210;-72
2021/01/28 08:56:22;;;;;;;1.73;1.23;;;6.20;99.90;;;;;;5095121;28;20227;-72
2021/01/28 08:58:50;;;;;;;1.10;1.00;;;6.20;99.90;;;;;;5094890;28;20251;-72
2021/01/28 09:01:17;;;;;;;1.25;1.15;;;6.30;99.90;;;;;;5087797;28;20210;-72
2021/01/28 09:03:54;;;;;;;1.20;0.70;;;6.30;99.90;;;;;;5083901;28;20694;-73
2021/01/28 09:06:21;;;;;;;1.42;0.90;;;6.30;99.90;;;;;;5084303;28;20194;-73
2021/01/28 09:09:00;;;;;;;0.70;0.70;;;6.30;99.90;;;;;;5082968;28;20201;-73
2021/01/28 09:11:29;;;;;;;0.73;0.73;;;6.40;99.90;;;;;;5081679;28;20210;-73
2021/01/28 09:14:28;;;;;;;1.00;0.90;;;6.40;99.90;;;;;;5083890;28;20229;-73
2021/01/28 09:16:58;;;;;;;0.85;0.70;;;6.40;99.90;;;;;;5083789;28;20206;-73
2021/01/28 09:19:25;;;;;;;0.82;0.77;;;6.40;99.90;;;;;;5082720;28;20216;-73
2021/01/28 09:21:56;;;;;;;1.60;1.20;;;6.40;99.90;;;;;;5081886;28;20214;-73
2021/01/28 09:24:30;;;;;;;0.85;0.82;;;6.50;99.90;;;;;;5083474;28;20201;-74
2021/01/28 09:27:14;;;;;;;1.50;1.13;;;6.50;99.90;;;;;;5083354;28;20195;-74
2021/01/28 09:29:42;;;;;;;1.90;1.00;;;6.50;99.90;;;;;;5075526;28;20198;-71
2021/01/28 09:32:12;;;;;;;1.45;0.75;;;6.60;99.90;;;;;;5074913;28;20227;-72
2021/01/28 09:34:38;;;;;;;2.13;0.90;;;6.60;99.90;;;;;;5074858;28;20228;-72
2021/01/28 09:37:07;;;;;;;0.77;0.73;;;6.70;99.90;;;;;;5075021;28;20203;-71
2021/01/28 09:39:40;;;;;;;1.23;1.13;;;6.70;99.90;;;;;;5075469;28;20203;-71
2021/01/28 09:42:28;;;;;;;1.00;0.90;;;6.80;99.90;;;;;;5075088;28;20226;-71
2021/01/28 09:44:55;;;;;;;0.82;0.82;;;6.80;99.90;;;;;;5072073;28;20667;-72
2021/01/28 09:47:28;;;;;;;0.85;0.60;;;6.80;99.90;;;;;;5074018;28;20214;-71
2021/01/28 09:49:56;;;;;;;0.60;0.60;;;6.70;99.90;;;;;;5075744;28;20222;-71
2021/01/28 09:52:26;;;;;;;0.80;0.63;;;6.70;99.90;;;;;;5073835;28;20639;-71
2021/01/28 09:54:55;;;;;;;0.70;0.70;;;6.70;99.90;;;;;;5074222;28;20698;-71
2021/01/28 09:57:22;;;;;;;2.08;1.55;;;6.70;99.90;;;;;;5073715;28;20240;-71
2021/01/28 09:59:48;;;;;;;1.60;1.50;;;6.70;99.90;;;;;;5074084;28;20199;-71
2021/01/28 10:02:17;;;;;;;4.72;1.95;;;6.80;99.90;;;;;;5074514;28;20314;-71
2021/01/28 10:04:45;;;;;;;1.00;0.98;;;6.80;99.90;;;;;;5075356;28;20220;-71
2021/01/28 10:07:12;;;;;;;2.13;0.95;;;6.90;99.90;;;;;;5074351;28;20202;-71
2021/01/28 10:09:38;;;;;;;0.93;0.80;;;6.90;99.90;;;;;;5074650;28;20297;-71
2021/01/28 10:12:05;;;;;;;2.50;1.17;;;6.90;99.90;;;;;;5074492;28;20330;-71
2021/01/28 10:14:32;;;;;;;1.20;1.15;;;6.90;99.90;;;;;;5074148;28;20233;-71
2021/01/28 10:16:58;;;;;;;1.30;0.93;;;7.00;99.90;;;;;;5073332;28;20248;-70
2021/01/28 10:19:24;;;;;;;1.33;0.95;;;7.00;99.90;;;;;;5073868;28;20207;-71
2021/01/28 10:21:51;;;;;;;2.28;1.02;;;7.00;99.90;;;;;;5073877;28;20578;-71
2021/01/28 10:24:18;;;;;;;1.45;0.80;;;7.00;99.90;;;;;;5073534;28;20229;-71
2021/01/28 10:26:45;;;;;;;0.82;0.80;;;7.10;99.90;;;;;;5072989;28;20213;-70
2021/01/28 10:29:11;;;;;;;0.70;0.70;;;7.10;99.90;;;;;;5073836;28;20549;-70
2021/01/28 10:31:37;;;;;;;1.42;0.90;;;7.20;99.90;;;;;;5074278;28;20219;-71
2021/01/28 10:34:04;;;;;;;1.10;0.60;;;7.20;99.90;;;;;;5074462;28;20252;-71
2021/01/28 10:36:30;;;;;;;0.75;0.70;;;7.20;99.90;;;;;;5073733;28;20202;-70
2021/01/28 10:38:57;;;;;;;0.93;0.63;;;7.30;99.90;;;;;;5074075;28;20289;-71
2021/01/28 10:41:24;;;;;;;0.95;0.95;;;7.30;99.90;;;;;;5073586;28;20664;-71
2021/01/28 10:43:50;;;;;;;0.90;0.90;;;7.40;99.90;;;;;;5074126;28;20195;-71
2021/01/28 10:46:16;;;;;;;0.80;0.80;;;7.40;99.90;;;;;;5072832;28;20703;-71
2021/01/28 10:48:42;;;;;;;2.13;0.70;;;7.50;99.90;;;;;;5073566;28;20206;-71
2021/01/28 10:51:10;;;;;;;2.05;0.90;;;7.50;99.90;;;;;;5073615;28;20564;-71
2021/01/28 10:53:37;;;;;;;1.20;1.10;;;7.50;99.90;;;;;;5073205;28;20226;-71
2021/01/28 10:56:04;;;;;;;0.55;0.55;;;7.50;99.90;;;;;;5073009;28;20618;-70
2021/01/28 10:58:31;;;;;;;0.77;0.77;;;7.60;99.90;;;;;;5076245;28;20256;-70
2021/01/28 11:00:58;;;;;;;1.02;0.80;;;7.70;99.90;;;;;;5077088;28;20199;-71
2021/01/28 11:03:25;;;;;;;1.33;1.00;;;7.70;99.90;;;;;;5077667;28;20214;-71
2021/01/28 11:05:52;;;;;;;0.60;0.60;;;7.90;99.90;;;;;;5077025;28;20205;-70
2021/01/28 11:08:18;;;;;;;0.75;0.68;;;7.90;99.90;;;;;;5077119;28;20248;-71
2021/01/28 11:10:45;;;;;;;1.08;0.90;;;8.00;99.90;;;;;;5077148;28;20209;-71
2021/01/28 11:13:12;;;;;;;0.70;0.60;;;8.00;99.90;;;;;;5077243;28;20271;-70
2021/01/28 11:15:39;;;;;;;0.50;0.50;;;8.10;99.90;;;;;;5076858;28;20297;-71
2021/01/28 11:18:07;;;;;;;0.50;0.50;;;8.10;99.90;;;;;;5077021;28;20202;-71
2021/01/28 11:20:33;;;;;;;0.90;0.80;;;8.10;99.90;;;;;;5076290;28;20211;-70
2021/01/28 11:23:00;;;;;;;0.80;0.80;;;8.10;99.90;;;;;;5076446;28;20229;-71
2021/01/28 11:25:27;;;;;;;0.60;0.60;;;8.10;99.90;;;;;;5076697;28;20293;-70
2021/01/28 11:27:54;;;;;;;1.40;1.00;;;8.10;99.90;;;;;;5076138;28;20681;-71
2021/01/28 11:30:24;;;;;;;0.98;0.80;;;8.10;99.90;;;;;;5077012;28;20205;-71
2021/01/28 11:32:51;;;;;;;0.80;0.80;;;8.10;99.90;;;;;;5076501;28;20219;-71
2021/01/28 11:35:21;;;;;;;0.70;0.70;;;8.10;99.90;;;;;;5076815;28;20207;-71
2021/01/28 11:37:48;;;;;;;3.88;1.10;;;8.20;99.90;;;;;;5076504;28;20724;-71
2021/01/28 11:40:16;;;;;;;0.70;0.70;;;8.20;99.90;;;;;;5076821;28;20203;-71
2021/01/28 11:42:42;;;;;;;0.90;0.88;;;8.30;99.90;;;;;;5076519;28;20275;-71
2021/01/28 11:45:10;;;;;;;1.05;0.63;;;8.40;99.90;;;;;;5077093;28;20204;-71
2021/01/28 11:47:37;;;;;;;2.70;1.80;;;8.50;99.90;;;;;;5075619;28;20623;-70
2021/01/28 11:50:05;;;;;;;5.10;1.88;;;8.60;99.90;;;;;;5075910;28;20699;-71
2021/01/28 11:52:31;;;;;;;0.65;0.65;;;8.70;99.90;;;;;;5075935;28;20252;-71
2021/01/28 11:54:58;;;;;;;1.00;0.80;;;8.70;99.90;;;;;;5076260;28;20248;-71
2021/01/28 11:57:24;;;;;;;0.85;0.70;;;8.70;99.90;;;;;;5076127;28;20352;-71
2021/01/28 11:59:50;;;;;;;2.28;0.57;;;8.80;99.90;;;;;;5076291;28;20202;-71
2021/01/28 12:02:17;;;;;;;0.70;0.70;;;8.80;99.90;;;;;;5077111;28;20305;-71
2021/01/28 12:04:44;;;;;;;4.63;0.75;;;8.90;99.90;;;;;;5076669;28;20203;-71
2021/01/28 12:07:11;;;;;;;0.70;0.70;;;9.00;99.90;;;;;;5077014;28;20199;-71
2021/01/28 12:09:37;;;;;;;1.20;0.80;;;9.00;99.90;;;;;;5076100;28;20535;-71
2021/01/28 12:12:04;;;;;;;1.15;0.70;;;9.10;99.90;;;;;;5076805;28;20235;-71
2021/01/28 12:14:30;;;;;;;0.70;0.60;;;9.10;99.90;;;;;;5077700;28;20203;-71
2021/01/28 12:16:56;;;;;;;0.60;0.60;;;9.30;99.90;;;;;;5076205;28;20669;-71
2021/01/28 12:19:22;;;;;;;1.05;0.65;;;9.30;99.90;;;;;;5076701;28;20216;-71
2021/01/28 12:21:50;;;;;;;1.67;0.75;;;9.40;99.90;;;;;;5076414;28;20223;-71
2021/01/28 12:24:16;;;;;;;0.80;0.70;;;9.40;99.90;;;;;;5076811;28;20198;-71
2021/01/28 12:26:42;;;;;;;1.30;0.75;;;9.40;99.90;;;;;;5075528;28;20203;-70
2021/01/28 12:29:09;;;;;;;3.25;1.52;;;9.50;99.90;;;;;;5076498;28;20641;-71
2021/01/28 12:31:35;;;;;;;1.77;1.23;;;9.50;99.90;;;;;;5075401;28;20219;-71
2021/01/28 12:34:02;;;;;;;1.00;0.90;;;9.60;99.90;;;;;;5075164;28;20615;-71
2021/01/28 12:36:28;;;;;;;1.02;0.95;;;9.70;99.90;;;;;;5074888;28;20211;-71
2021/01/28 12:38:56;;;;;;;1.67;0.85;;;9.80;99.90;;;;;;5075466;28;20209;-71
2021/01/28 12:41:22;;;;;;;0.63;0.60;;;9.90;99.90;;;;;;5075430;28;20205;-71
2021/01/28 12:43:48;;;;;;;0.75;0.75;;;9.90;99.90;;;;;;5075019;28;20272;-71
2021/01/28 12:46:15;;;;;;;0.85;0.82;;;10.00;99.90;;;;;;5074747;28;20215;-70
2021/01/28 12:48:41;;;;;;;0.70;0.60;;;9.90;99.90;;;;;;5074955;28;20293;-71
2021/01/28 12:51:07;;;;;;;1.88;0.70;;;9.90;99.90;;;;;;5075078;28;20289;-71
2021/01/28 12:53:34;;;;;;;1.75;0.70;;;9.80;99.90;;;;;;5075240;28;20239;-71
2021/01/28 12:56:01;;;;;;;0.70;0.60;;;9.80;99.90;;;;;;5074779;28;20602;-71
2021/01/28 12:58:28;;;;;;;0.95;0.80;;;9.80;99.90;;;;;;5074711;28;20207;-71
2021/01/28 13:00:54;;;;;;;3.30;2.53;;;9.80;99.90;;;;;;5074768;28;20209;-71
2021/01/28 13:03:20;;;;;;;0.52;0.52;;;9.80;99.90;;;;;;5074928;28;20218;-71
2021/01/28 13:05:47;;;;;;;1.00;0.90;;;9.90;99.90;;;;;;5074616;28;20204;-71
2021/01/28 13:08:13;;;;;;;0.75;0.75;;;9.90;99.90;;;;;;5074517;28;20295;-71
2021/01/28 13:10:39;;;;;;;0.70;0.70;;;9.90;99.90;;;;;;5074816;28;20260;-71
2021/01/28 13:13:07;;;;;;;0.77;0.77;;;9.80;99.90;;;;;;5074389;28;20227;-71
2021/01/28 13:15:35;;;;;;;0.45;0.40;;;9.80;99.90;;;;;;5074141;28;20296;-71